sensor_id;sensor_type;location;lat;lon;timestamp;pressure;altitude;pressure_sealevel;temperature;humidity
70133;BME280;57495;49.922;7.966;2023-03-16T00:00:31;100443.34;;;1.38;81.25
70133;BME280;57495;49.922;7.966;2023-03-16T00:02:34;100438.91;;;1.39;81.26
70133;BME280;57495;49.922;7.966;2023-03-16T00:04:35;100443.47;;;1.35;81.88
70133;BME280;57495;49.922;7.966;2023-03-16T00:06:37;100437.38;;;1.34;81.78
70133;BME280;57495;49.922;7.966;2023-03-16T00:08:38;100443.47;;;1.35;81.76
70133;BME280;57495;49.922;7.966;2023-03-16T00:10:42;100443.47;;;1.35;81.70
70133;BME280;57495;49.922;7.966;2023-03-16T00:12:46;100449.63;;;1.35;81.97
70133;BME280;57495;49.922;7.966;2023-03-16T00:14:48;100449.25;;;1.43;82.61
70133;BME280;57495;49.922;7.966;2023-03-16T00:16:49;100438.38;;;1.32;82.82
70133;BME280;57495;49.922;7.966;2023-03-16T00:18:52;100441.06;;;1.30;83.14
70133;BME280;57495;49.922;7.966;2023-03-16T00:20:58;100441.22;;;1.27;82.45
70133;BME280;57495;49.922;7.966;2023-03-16T00:23:01;100436.53;;;1.15;83.05
70133;BME280;57495;49.922;7.966;2023-03-16T00:25:03;100437.59;;;1.11;82.86
70133;BME280;57495;49.922;7.966;2023-03-16T00:27:05;100430.84;;;1.05;82.77
70133;BME280;57495;49.922;7.966;2023-03-16T00:29:06;100432.31;;;1.11;83.05
70133;BME280;57495;49.922;7.966;2023-03-16T00:31:09;100432.97;;;1.16;82.98
70133;BME280;57495;49.922;7.966;2023-03-16T00:33:11;100434.34;;;1.06;83.87
70133;BME280;57495;49.922;7.966;2023-03-16T00:35:14;100442.84;;;1.11;83.78
70133;BME280;57495;49.922;7.966;2023-03-16T00:37:17;100442.50;;;1.00;84.07
70133;BME280;57495;49.922;7.966;2023-03-16T00:39:19;100443.53;;;0.97;85.17
70133;BME280;57495;49.922;7.966;2023-03-16T00:41:21;100441.09;;;1.11;85.24
70133;BME280;57495;49.922;7.966;2023-03-16T00:43:23;100433.97;;;1.13;84.82
70133;BME280;57495;49.922;7.966;2023-03-16T00:45:26;100428.72;;;1.13;85.87
70133;BME280;57495;49.922;7.966;2023-03-16T00:47:29;100430.84;;;1.24;84.86
70133;BME280;57495;49.922;7.966;2023-03-16T00:49:31;100434.63;;;1.19;85.81
70133;BME280;57495;49.922;7.966;2023-03-16T00:51:35;100437.97;;;1.03;85.18
70133;BME280;57495;49.922;7.966;2023-03-16T00:53:36;100442.25;;;1.06;84.84
70133;BME280;57495;49.922;7.966;2023-03-16T00:55:38;100451.91;;;1.05;84.19
70133;BME280;57495;49.922;7.966;2023-03-16T00:57:39;100453.41;;;0.92;83.70
70133;BME280;57495;49.922;7.966;2023-03-16T00:59:41;100442.81;;;0.93;84.18
70133;BME280;57495;49.922;7.966;2023-03-16T01:01:42;100440.81;;;0.99;84.84
70133;BME280;57495;49.922;7.966;2023-03-16T01:03:45;100444.38;;;0.98;86.49
70133;BME280;57495;49.922;7.966;2023-03-16T01:05:47;100449.63;;;0.98;86.95
70133;BME280;57495;49.922;7.966;2023-03-16T01:07:50;100460.88;;;0.82;88.15
70133;BME280;57495;49.922;7.966;2023-03-16T01:09:52;100454.75;;;0.82;88.18
70133;BME280;57495;49.922;7.966;2023-03-16T01:11:53;100448.00;;;0.76;88.93
70133;BME280;57495;49.922;7.966;2023-03-16T01:13:55;100456.44;;;0.64;89.46
70133;BME280;57495;49.922;7.966;2023-03-16T01:15:56;100447.34;;;0.71;87.08
70133;BME280;57495;49.922;7.966;2023-03-16T01:17:57;100443.66;;;0.75;85.61
70133;BME280;57495;49.922;7.966;2023-03-16T01:19:59;100439.81;;;0.82;85.77
70133;BME280;57495;49.922;7.966;2023-03-16T01:22:01;100427.56;;;0.81;85.67
70133;BME280;57495;49.922;7.966;2023-03-16T01:24:04;100423.38;;;0.77;86.08
70133;BME280;57495;49.922;7.966;2023-03-16T01:26:06;100425.72;;;0.64;85.23
70133;BME280;57495;49.922;7.966;2023-03-16T01:28:08;100413.25;;;0.68;85.31
70133;BME280;57495;49.922;7.966;2023-03-16T01:30:10;100409.44;;;0.75;85.17
70133;BME280;57495;49.922;7.966;2023-03-16T01:32:12;100420.97;;;0.72;85.51
70133;BME280;57495;49.922;7.966;2023-03-16T01:34:14;100427.84;;;0.75;84.37
70133;BME280;57495;49.922;7.966;2023-03-16T01:36:18;100431.75;;;0.66;84.99
70133;BME280;57495;49.922;7.966;2023-03-16T01:38:19;100429.28;;;0.63;86.28
70133;BME280;57495;49.922;7.966;2023-03-16T01:40:22;100426.84;;;0.58;87.29
70133;BME280;57495;49.922;7.966;2023-03-16T01:42:24;100418.16;;;0.56;86.86
70133;BME280;57495;49.922;7.966;2023-03-16T01:44:26;100402.97;;;0.63;86.16
70133;BME280;57495;49.922;7.966;2023-03-16T01:46:30;100400.53;;;0.58;86.13
70133;BME280;57495;49.922;7.966;2023-03-16T01:48:32;100397.97;;;0.57;87.51
70133;BME280;57495;49.922;7.966;2023-03-16T01:50:36;100403.69;;;0.67;86.45
70133;BME280;57495;49.922;7.966;2023-03-16T01:52:38;100400.94;;;0.68;86.44
70133;BME280;57495;49.922;7.966;2023-03-16T01:54:43;100395.78;;;0.67;85.27
70133;BME280;57495;49.922;7.966;2023-03-16T01:56:51;100400.09;;;0.68;85.80
70133;BME280;57495;49.922;7.966;2023-03-16T01:58:56;100398.56;;;0.64;86.00
70133;BME280;57495;49.922;7.966;2023-03-16T02:01:01;100390.44;;;0.68;85.52
70133;BME280;57495;49.922;7.966;2023-03-16T02:03:07;100384.31;;;0.49;85.90
70133;BME280;57495;49.922;7.966;2023-03-16T02:05:13;100382.19;;;0.57;86.19
70133;BME280;57495;49.922;7.966;2023-03-16T02:07:17;100377.84;;;0.56;86.06
70133;BME280;57495;49.922;7.966;2023-03-16T02:09:20;100382.53;;;0.49;87.42
70133;BME280;57495;49.922;7.966;2023-03-16T02:11:22;100382.41;;;0.52;88.79
70133;BME280;57495;49.922;7.966;2023-03-16T02:13:25;100370.69;;;0.60;88.92
70133;BME280;57495;49.922;7.966;2023-03-16T02:15:29;100373.00;;;0.66;88.19
70133;BME280;57495;49.922;7.966;2023-03-16T02:17:31;100375.94;;;0.60;87.85
70133;BME280;57495;49.922;7.966;2023-03-16T02:19:40;100376.66;;;0.63;87.65
70133;BME280;57495;49.922;7.966;2023-03-16T02:21:51;100377.28;;;0.49;86.94
70133;BME280;57495;49.922;7.966;2023-03-16T02:23:54;100377.78;;;0.57;88.47
70133;BME280;57495;49.922;7.966;2023-03-16T02:26:01;100375.16;;;0.57;89.23
70133;BME280;57495;49.922;7.966;2023-03-16T02:28:09;100368.94;;;0.58;88.64
70133;BME280;57495;49.922;7.966;2023-03-16T02:30:15;100368.81;;;0.62;88.54
70133;BME280;57495;49.922;7.966;2023-03-16T02:32:17;100367.09;;;0.61;88.06
70133;BME280;57495;49.922;7.966;2023-03-16T02:34:19;100373.31;;;0.60;87.72
70133;BME280;57495;49.922;7.966;2023-03-16T02:36:20;100369.25;;;0.52;88.12
70133;BME280;57495;49.922;7.966;2023-03-16T02:38:22;100354.31;;;0.53;88.89
70133;BME280;57495;49.922;7.966;2023-03-16T02:40:25;100354.00;;;0.59;88.59
70133;BME280;57495;49.922;7.966;2023-03-16T02:42:28;100355.03;;;0.56;88.03
70133;BME280;57495;49.922;7.966;2023-03-16T02:44:32;100351.03;;;0.48;87.74
70133;BME280;57495;49.922;7.966;2023-03-16T02:46:37;100350.19;;;0.47;88.17
70133;BME280;57495;49.922;7.966;2023-03-16T02:48:43;100343.72;;;0.35;90.62
70133;BME280;57495;49.922;7.966;2023-03-16T02:50:46;100351.59;;;-0.04;94.33
70133;BME280;57495;49.922;7.966;2023-03-16T02:52:49;100340.84;;;0.21;94.11
70133;BME280;57495;49.922;7.966;2023-03-16T02:54:50;100338.66;;;0.31;94.17
70133;BME280;57495;49.922;7.966;2023-03-16T02:56:51;100344.34;;;0.41;93.59
70133;BME280;57495;49.922;7.966;2023-03-16T02:58:53;100339.66;;;0.47;92.36
70133;BME280;57495;49.922;7.966;2023-03-16T03:00:56;100335.25;;;0.48;91.63
70133;BME280;57495;49.922;7.966;2023-03-16T03:02:59;100339.78;;;0.44;90.97
70133;BME280;57495;49.922;7.966;2023-03-16T03:05:01;100342.16;;;0.50;90.21
70133;BME280;57495;49.922;7.966;2023-03-16T03:07:02;100343.13;;;0.48;90.68
70133;BME280;57495;49.922;7.966;2023-03-16T03:09:04;100351.25;;;0.43;91.30
70133;BME280;57495;49.922;7.966;2023-03-16T03:11:06;100343.06;;;0.49;91.25
70133;BME280;57495;49.922;7.966;2023-03-16T03:13:07;100332.84;;;0.43;91.28
70133;BME280;57495;49.922;7.966;2023-03-16T03:15:09;100337.16;;;0.44;91.05
70133;BME280;57495;49.922;7.966;2023-03-16T03:17:11;100335.81;;;0.35;91.13
70133;BME280;57495;49.922;7.966;2023-03-16T03:19:14;100334.94;;;0.35;91.12
70133;BME280;57495;49.922;7.966;2023-03-16T03:21:16;100334.81;;;0.38;89.94
70133;BME280;57495;49.922;7.966;2023-03-16T03:23:17;100334.94;;;0.35;91.62
70133;BME280;57495;49.922;7.966;2023-03-16T03:25:20;100336.53;;;0.39;92.11
70133;BME280;57495;49.922;7.966;2023-03-16T03:27:22;100331.41;;;0.36;92.18
70133;BME280;57495;49.922;7.966;2023-03-16T03:29:23;100331.28;;;0.39;91.78
70133;BME280;57495;49.922;7.966;2023-03-16T03:31:25;100332.59;;;0.29;90.07
70133;BME280;57495;49.922;7.966;2023-03-16T03:33:26;100336.97;;;0.30;90.42
70133;BME280;57495;49.922;7.966;2023-03-16T03:35:29;100334.81;;;0.38;90.26
70133;BME280;57495;49.922;7.966;2023-03-16T03:37:30;100338.59;;;0.32;89.41
70133;BME280;57495;49.922;7.966;2023-03-16T03:39:32;100333.69;;;0.44;89.77
70133;BME280;57495;49.922;7.966;2023-03-16T03:41:34;100332.78;;;0.45;90.38
70133;BME280;57495;49.922;7.966;2023-03-16T03:43:36;100334.09;;;0.34;89.92
70133;BME280;57495;49.922;7.966;2023-03-16T03:45:37;100327.00;;;0.36;90.61
70133;BME280;57495;49.922;7.966;2023-03-16T03:47:39;100327.72;;;0.40;92.40
70133;BME280;57495;49.922;7.966;2023-03-16T03:49:40;100328.00;;;0.34;91.76
70133;BME280;57495;49.922;7.966;2023-03-16T03:51:43;100332.41;;;0.33;92.47
70133;BME280;57495;49.922;7.966;2023-03-16T03:53:46;100323.81;;;0.30;91.35
70133;BME280;57495;49.922;7.966;2023-03-16T03:55:47;100326.44;;;0.30;92.22
70133;BME280;57495;49.922;7.966;2023-03-16T03:57:49;100332.91;;;0.23;92.83
70133;BME280;57495;49.922;7.966;2023-03-16T03:59:50;100325.97;;;0.20;94.57
70133;BME280;57495;49.922;7.966;2023-03-16T04:01:52;100330.09;;;0.26;95.59
70133;BME280;57495;49.922;7.966;2023-03-16T04:03:53;100326.69;;;0.24;96.50
70133;BME280;57495;49.922;7.966;2023-03-16T04:05:55;100317.91;;;0.25;98.02
70133;BME280;57495;49.922;7.966;2023-03-16T04:07:58;100324.59;;;0.32;98.42
70133;BME280;57495;49.922;7.966;2023-03-16T04:09:59;100327.16;;;0.33;98.80
70133;BME280;57495;49.922;7.966;2023-03-16T04:12:01;100325.06;;;0.40;98.77
70133;BME280;57495;49.922;7.966;2023-03-16T04:14:04;100314.78;;;0.35;98.71
70133;BME280;57495;49.922;7.966;2023-03-16T04:16:05;100317.31;;;0.37;99.16
70133;BME280;57495;49.922;7.966;2023-03-16T04:18:07;100317.06;;;0.43;99.13
70133;BME280;57495;49.922;7.966;2023-03-16T04:20:09;100323.03;;;0.47;98.72
70133;BME280;57495;49.922;7.966;2023-03-16T04:22:13;100319.53;;;0.46;98.50
70133;BME280;57495;49.922;7.966;2023-03-16T04:24:17;100326.63;;;0.44;98.81
70133;BME280;57495;49.922;7.966;2023-03-16T04:26:19;100318.75;;;0.44;98.71
70133;BME280;57495;49.922;7.966;2023-03-16T04:28:20;100313.47;;;0.44;98.95
70133;BME280;57495;49.922;7.966;2023-03-16T04:30:22;100313.47;;;0.44;99.34
70133;BME280;57495;49.922;7.966;2023-03-16T04:32:23;100318.03;;;0.41;99.40
70133;BME280;57495;49.922;7.966;2023-03-16T04:34:25;100320.47;;;0.45;99.51
70133;BME280;57495;49.922;7.966;2023-03-16T04:36:27;100310.53;;;0.52;99.56
70133;BME280;57495;49.922;7.966;2023-03-16T04:38:28;100312.00;;;0.57;98.59
70133;BME280;57495;49.922;7.966;2023-03-16T04:40:31;100316.75;;;0.49;98.71
70133;BME280;57495;49.922;7.966;2023-03-16T04:42:32;100317.28;;;0.57;98.68
70133;BME280;57495;49.922;7.966;2023-03-16T04:44:35;100318.19;;;0.56;98.43
70133;BME280;57495;49.922;7.966;2023-03-16T04:46:43;100312.94;;;0.56;97.56
70133;BME280;57495;49.922;7.966;2023-03-16T04:48:44;100313.63;;;0.60;97.13
70133;BME280;57495;49.922;7.966;2023-03-16T04:50:47;100317.75;;;0.66;96.93
70133;BME280;57495;49.922;7.966;2023-03-16T04:52:49;100310.69;;;0.66;96.54
70133;BME280;57495;49.922;7.966;2023-03-16T04:54:51;100311.47;;;0.68;96.58
70133;BME280;57495;49.922;7.966;2023-03-16T04:56:54;100311.78;;;0.62;96.36
70133;BME280;57495;49.922;7.966;2023-03-16T04:58:55;100318.59;;;0.66;95.81
70133;BME280;57495;49.922;7.966;2023-03-16T05:00:57;100317.63;;;0.69;95.19
70133;BME280;57495;49.922;7.966;2023-03-16T05:02:58;100315.41;;;0.60;95.52
70133;BME280;57495;49.922;7.966;2023-03-16T05:04:59;100325.06;;;0.59;95.14
70133;BME280;57495;49.922;7.966;2023-03-16T05:07:01;100309.78;;;0.67;94.89
70133;BME280;57495;49.922;7.966;2023-03-16T05:09:03;100313.75;;;0.57;96.81
70133;BME280;57495;49.922;7.966;2023-03-16T05:11:07;100310.63;;;0.68;97.08
70133;BME280;57495;49.922;7.966;2023-03-16T05:13:09;100303.69;;;0.67;97.15
70133;BME280;57495;49.922;7.966;2023-03-16T05:15:11;100303.38;;;0.73;97.32
70133;BME280;57495;49.922;7.966;2023-03-16T05:17:13;100305.06;;;0.74;97.12
70133;BME280;57495;49.922;7.966;2023-03-16T05:19:14;100292.00;;;0.72;97.53
70133;BME280;57495;49.922;7.966;2023-03-16T05:21:16;100299.66;;;0.77;97.77
70133;BME280;57495;49.922;7.966;2023-03-16T05:23:17;100295.34;;;0.76;97.78
70133;BME280;57495;49.922;7.966;2023-03-16T05:25:19;100300.44;;;0.79;98.02
70133;BME280;57495;49.922;7.966;2023-03-16T05:27:21;100294.09;;;0.83;97.66
70133;BME280;57495;49.922;7.966;2023-03-16T05:29:24;100290.16;;;0.74;97.65
70133;BME280;57495;49.922;7.966;2023-03-16T05:31:26;100290.81;;;0.61;97.45
70133;BME280;57495;49.922;7.966;2023-03-16T05:33:28;100290.53;;;0.67;97.20
70133;BME280;57495;49.922;7.966;2023-03-16T05:35:29;100282.47;;;0.70;96.88
70133;BME280;57495;49.922;7.966;2023-03-16T05:37:31;100278.22;;;0.67;96.55
70133;BME280;57495;49.922;7.966;2023-03-16T05:39:34;100288.94;;;0.63;97.81
70133;BME280;57495;49.922;7.966;2023-03-16T05:41:35;100276.66;;;0.63;97.90
70133;BME280;57495;49.922;7.966;2023-03-16T05:43:37;100290.47;;;0.49;98.66
70133;BME280;57495;49.922;7.966;2023-03-16T05:45:39;100285.59;;;0.59;98.43
70133;BME280;57495;49.922;7.966;2023-03-16T05:47:42;100289.03;;;0.61;97.99
70133;BME280;57495;49.922;7.966;2023-03-16T05:49:43;100285.41;;;0.64;97.71
70133;BME280;57495;49.922;7.966;2023-03-16T05:51:45;100288.75;;;0.67;97.05
70133;BME280;57495;49.922;7.966;2023-03-16T05:53:48;100289.72;;;0.65;96.99
70133;BME280;57495;49.922;7.966;2023-03-16T05:55:50;100282.78;;;0.64;97.44
70133;BME280;57495;49.922;7.966;2023-03-16T05:57:52;100287.03;;;0.66;97.65
70133;BME280;57495;49.922;7.966;2023-03-16T05:59:53;100290.44;;;0.68;97.15
70133;BME280;57495;49.922;7.966;2023-03-16T06:01:56;100291.22;;;0.70;97.39
70133;BME280;57495;49.922;7.966;2023-03-16T06:03:57;100294.13;;;0.64;97.79
70133;BME280;57495;49.922;7.966;2023-03-16T06:05:59;100282.47;;;0.70;97.88
70133;BME280;57495;49.922;7.966;2023-03-16T06:08:01;100282.19;;;0.76;97.66
70133;BME280;57495;49.922;7.966;2023-03-16T06:10:03;100285.25;;;0.67;98.16
70133;BME280;57495;49.922;7.966;2023-03-16T06:12:05;100283.63;;;0.64;98.58
70133;BME280;57495;49.922;7.966;2023-03-16T06:14:07;100287.53;;;0.74;98.51
70133;BME280;57495;49.922;7.966;2023-03-16T06:16:08;100291.91;;;0.74;98.27
70133;BME280;57495;49.922;7.966;2023-03-16T06:18:14;100291.13;;;0.72;98.80
70133;BME280;57495;49.922;7.966;2023-03-16T06:20:16;100295.50;;;0.73;98.99
70133;BME280;57495;49.922;7.966;2023-03-16T06:22:17;100297.19;;;0.74;99.10
70133;BME280;57495;49.922;7.966;2023-03-16T06:24:19;100299.38;;;0.83;98.93
70133;BME280;57495;49.922;7.966;2023-03-16T06:26:20;100295.81;;;0.84;98.61
70133;BME280;57495;49.922;7.966;2023-03-16T06:28:22;100291.78;;;0.77;99.36
70133;BME280;57495;49.922;7.966;2023-03-16T06:30:23;100290.94;;;0.76;99.78
70133;BME280;57495;49.922;7.966;2023-03-16T06:32:25;100302.25;;;0.79;99.55
70133;BME280;57495;49.922;7.966;2023-03-16T06:34:27;100300.78;;;0.90;98.88
70133;BME280;57495;49.922;7.966;2023-03-16T06:36:29;100301.22;;;1.00;98.48
70133;BME280;57495;49.922;7.966;2023-03-16T06:38:30;100294.09;;;1.02;98.14
70133;BME280;57495;49.922;7.966;2023-03-16T06:40:32;100295.63;;;1.06;98.96
70133;BME280;57495;49.922;7.966;2023-03-16T06:42:34;100298.59;;;1.18;98.41
70133;BME280;57495;49.922;7.966;2023-03-16T06:44:36;100304.56;;;1.21;98.22
70133;BME280;57495;49.922;7.966;2023-03-16T06:46:37;100302.38;;;1.29;98.15
70133;BME280;57495;49.922;7.966;2023-03-16T06:48:38;100304.25;;;1.27;98.25
70133;BME280;57495;49.922;7.966;2023-03-16T06:50:43;100292.94;;;1.25;98.00
70133;BME280;57495;49.922;7.966;2023-03-16T06:52:45;100291.69;;;1.32;97.68
70133;BME280;57495;49.922;7.966;2023-03-16T06:54:46;100282.88;;;1.33;97.55
70133;BME280;57495;49.922;7.966;2023-03-16T06:56:48;100284.41;;;1.38;97.55
70133;BME280;57495;49.922;7.966;2023-03-16T06:58:50;100290.47;;;1.40;97.25
70133;BME280;57495;49.922;7.966;2023-03-16T07:00:52;100290.13;;;1.46;97.12
70133;BME280;57495;49.922;7.966;2023-03-16T07:02:53;100294.09;;;1.54;97.24
70133;BME280;57495;49.922;7.966;2023-03-16T07:04:55;100299.03;;;1.61;96.90
70133;BME280;57495;49.922;7.966;2023-03-16T07:06:58;100303.41;;;1.62;97.34
70133;BME280;57495;49.922;7.966;2023-03-16T07:08:59;100305.31;;;1.76;96.34
70133;BME280;57495;49.922;7.966;2023-03-16T07:11:01;100300.44;;;1.85;95.91
70133;BME280;57495;49.922;7.966;2023-03-16T07:13:02;100295.44;;;1.97;95.93
70133;BME280;57495;49.922;7.966;2023-03-16T07:15:05;100301.50;;;2.15;95.41
70133;BME280;57495;49.922;7.966;2023-03-16T07:17:06;100302.19;;;2.18;95.37
70133;BME280;57495;49.922;7.966;2023-03-16T07:19:08;100305.22;;;2.28;95.35
70133;BME280;57495;49.922;7.966;2023-03-16T07:21:09;100298.66;;;2.35;95.89
70133;BME280;57495;49.922;7.966;2023-03-16T07:23:12;100297.47;;;2.41;95.44
70133;BME280;57495;49.922;7.966;2023-03-16T07:25:13;100297.06;;;2.48;95.09
70133;BME280;57495;49.922;7.966;2023-03-16T07:27:15;100295.88;;;2.54;95.23
70133;BME280;57495;49.922;7.966;2023-03-16T07:29:16;100295.28;;;2.65;95.85
70133;BME280;57495;49.922;7.966;2023-03-16T07:31:18;100295.69;;;2.73;96.04
70133;BME280;57495;49.922;7.966;2023-03-16T07:33:19;100293.72;;;2.77;95.26
70133;BME280;57495;49.922;7.966;2023-03-16T07:35:21;100295.59;;;2.75;94.75
70133;BME280;57495;49.922;7.966;2023-03-16T07:37:23;100284.00;;;2.77;94.75
70133;BME280;57495;49.922;7.966;2023-03-16T07:39:26;100297.13;;;2.79;95.19
70133;BME280;57495;49.922;7.966;2023-03-16T07:41:27;100301.97;;;2.86;95.53
70133;BME280;57495;49.922;7.966;2023-03-16T07:43:29;100306.34;;;2.87;94.33
70133;BME280;57495;49.922;7.966;2023-03-16T07:45:30;100306.66;;;2.81;94.14
70133;BME280;57495;49.922;7.966;2023-03-16T07:47:32;100307.09;;;2.89;94.04
70133;BME280;57495;49.922;7.966;2023-03-16T07:49:34;100311.56;;;3.03;94.25
70133;BME280;57495;49.922;7.966;2023-03-16T07:51:36;100311.94;;;3.13;93.68
70133;BME280;57495;49.922;7.966;2023-03-16T07:53:37;100300.31;;;3.16;93.70
70133;BME280;57495;49.922;7.966;2023-03-16T07:55:40;100300.81;;;3.22;93.05
70133;BME280;57495;49.922;7.966;2023-03-16T07:57:42;100300.59;;;3.41;92.39
70133;BME280;57495;49.922;7.966;2023-03-16T07:59:47;100308.69;;;3.68;92.68
70133;BME280;57495;49.922;7.966;2023-03-16T08:01:48;100309.25;;;3.74;91.47
70133;BME280;57495;49.922;7.966;2023-03-16T08:03:50;100316.94;;;3.93;90.31
70133;BME280;57495;49.922;7.966;2023-03-16T08:05:52;100318.75;;;4.06;89.73
70133;BME280;57495;49.922;7.966;2023-03-16T08:07:54;100313.53;;;4.19;90.45
70133;BME280;57495;49.922;7.966;2023-03-16T08:09:56;100306.84;;;4.28;90.54
70133;BME280;57495;49.922;7.966;2023-03-16T08:11:59;100300.41;;;4.18;88.64
70133;BME280;57495;49.922;7.966;2023-03-16T08:14:00;100301.63;;;4.41;88.52
70133;BME280;57495;49.922;7.966;2023-03-16T08:16:03;100295.63;;;4.66;88.30
70133;BME280;57495;49.922;7.966;2023-03-16T08:18:09;100284.75;;;4.56;88.41
70133;BME280;57495;49.922;7.966;2023-03-16T08:20:12;100283.00;;;4.42;87.76
70133;BME280;57495;49.922;7.966;2023-03-16T08:22:14;100283.38;;;4.36;88.42
70133;BME280;57495;49.922;7.966;2023-03-16T08:24:16;100272.41;;;4.42;88.18
70133;BME280;57495;49.922;7.966;2023-03-16T08:26:18;100280.28;;;4.30;87.91
70133;BME280;57495;49.922;7.966;2023-03-16T08:28:21;100287.75;;;4.23;88.15
70133;BME280;57495;49.922;7.966;2023-03-16T08:30:24;100285.00;;;4.39;88.49
70133;BME280;57495;49.922;7.966;2023-03-16T08:32:26;100290.38;;;4.52;88.38
70133;BME280;57495;49.922;7.966;2023-03-16T08:34:27;100286.94;;;4.50;87.37
70133;BME280;57495;49.922;7.966;2023-03-16T08:36:29;100285.59;;;4.57;87.72
70133;BME280;57495;49.922;7.966;2023-03-16T08:38:31;100293.53;;;4.71;87.00
70133;BME280;57495;49.922;7.966;2023-03-16T08:40:33;100298.16;;;4.68;86.80
70133;BME280;57495;49.922;7.966;2023-03-16T08:42:34;100305.84;;;4.72;87.30
70133;BME280;57495;49.922;7.966;2023-03-16T08:44:37;100296.25;;;4.42;88.22
70133;BME280;57495;49.922;7.966;2023-03-16T08:46:39;100289.47;;;4.65;87.22
70133;BME280;57495;49.922;7.966;2023-03-16T08:48:41;100288.69;;;5.05;86.94
70133;BME280;57495;49.922;7.966;2023-03-16T08:50:43;100284.00;;;5.36;86.14
70133;BME280;57495;49.922;7.966;2023-03-16T08:52:45;100291.03;;;5.50;81.77
70133;BME280;57495;49.922;7.966;2023-03-16T08:54:48;100282.75;;;5.41;81.42
70133;BME280;57495;49.922;7.966;2023-03-16T08:56:49;100271.63;;;5.75;82.26
70133;BME280;57495;49.922;7.966;2023-03-16T08:58:51;100274.88;;;5.40;82.84
70133;BME280;57495;49.922;7.966;2023-03-16T09:00:54;100274.28;;;5.62;83.64
70133;BME280;57495;49.922;7.966;2023-03-16T09:02:55;100265.63;;;5.98;81.89
70133;BME280;57495;49.922;7.966;2023-03-16T09:04:58;100263.91;;;6.10;81.65
70133;BME280;57495;49.922;7.966;2023-03-16T09:06:59;100259.91;;;6.42;80.14
70133;BME280;57495;49.922;7.966;2023-03-16T09:09:00;100260.03;;;6.27;79.17
70133;BME280;57495;49.922;7.966;2023-03-16T09:11:05;100260.69;;;6.18;80.42
70133;BME280;57495;49.922;7.966;2023-03-16T09:13:06;100268.03;;;6.14;81.19
70133;BME280;57495;49.922;7.966;2023-03-16T09:15:10;100263.06;;;6.10;79.95
70133;BME280;57495;49.922;7.966;2023-03-16T09:17:14;100260.69;;;6.31;79.41
70133;BME280;57495;49.922;7.966;2023-03-16T09:19:15;100260.69;;;6.18;81.98
70133;BME280;57495;49.922;7.966;2023-03-16T09:21:17;100267.72;;;6.19;80.57
70133;BME280;57495;49.922;7.966;2023-03-16T09:23:18;100259.66;;;6.08;80.23
70133;BME280;57495;49.922;7.966;2023-03-16T09:25:20;100260.03;;;6.27;79.15
70133;BME280;57495;49.922;7.966;2023-03-16T09:27:21;100270.25;;;6.33;81.54
70133;BME280;57495;49.922;7.966;2023-03-16T09:29:23;100272.84;;;6.59;79.21
70133;BME280;57495;49.922;7.966;2023-03-16T09:31:24;100262.91;;;6.74;79.49
70133;BME280;57495;49.922;7.966;2023-03-16T09:33:27;100263.03;;;6.96;78.87
70133;BME280;57495;49.922;7.966;2023-03-16T09:35:31;100255.38;;;6.92;77.77
70133;BME280;57495;49.922;7.966;2023-03-16T09:37:33;100257.03;;;6.82;79.11
70133;BME280;57495;49.922;7.966;2023-03-16T09:39:35;100261.72;;;7.02;80.93
70133;BME280;57495;49.922;7.966;2023-03-16T09:41:41;100258.94;;;7.39;78.56
70133;BME280;57495;49.922;7.966;2023-03-16T09:43:56;100250.34;;;7.35;76.81
70133;BME280;57495;49.922;7.966;2023-03-16T09:46:05;100246.69;;;7.61;77.45
70133;BME280;57495;49.922;7.966;2023-03-16T09:48:10;100237.50;;;7.99;78.12
70133;BME280;57495;49.922;7.966;2023-03-16T09:50:19;100242.34;;;8.16;76.67
70133;BME280;57495;49.922;7.966;2023-03-16T09:52:26;100248.16;;;8.10;74.28
70133;BME280;57495;49.922;7.966;2023-03-16T09:54:34;100247.94;;;8.13;73.65
70133;BME280;57495;49.922;7.966;2023-03-16T09:56:39;100253.78;;;7.60;74.85
70133;BME280;57495;49.922;7.966;2023-03-16T09:58:42;100251.03;;;7.73;78.14
70133;BME280;57495;49.922;7.966;2023-03-16T10:00:53;100239.34;;;7.98;77.18
70133;BME280;57495;49.922;7.966;2023-03-16T10:03:02;100245.00;;;8.16;74.35
70133;BME280;57495;49.922;7.966;2023-03-16T10:05:09;100251.06;;;8.41;71.91
70133;BME280;57495;49.922;7.966;2023-03-16T10:07:20;100237.50;;;8.55;74.44
70133;BME280;57495;49.922;7.966;2023-03-16T10:09:31;100240.09;;;9.10;71.38
70133;BME280;57495;49.922;7.966;2023-03-16T10:11:37;100231.00;;;9.13;72.80
70133;BME280;57495;49.922;7.966;2023-03-16T10:13:43;100235.28;;;9.25;71.68
70133;BME280;57495;49.922;7.966;2023-03-16T10:15:48;100240.97;;;8.99;71.37
70133;BME280;57495;49.922;7.966;2023-03-16T10:17:55;100245.56;;;9.08;71.41
70133;BME280;57495;49.922;7.966;2023-03-16T10:20:01;100246.94;;;8.25;71.02
70133;BME280;57495;49.922;7.966;2023-03-16T10:22:16;100242.00;;;7.98;73.16
70133;BME280;57495;49.922;7.966;2023-03-16T10:24:26;100248.50;;;7.71;75.77
70133;BME280;57495;49.922;7.966;2023-03-16T10:26:37;100252.38;;;7.79;77.03
70133;BME280;57495;49.922;7.966;2023-03-16T10:28:43;100243.72;;;7.41;77.93
70133;BME280;57495;49.922;7.966;2023-03-16T10:30:47;100237.72;;;7.62;78.83
70133;BME280;57495;49.922;7.966;2023-03-16T10:32:50;100238.06;;;8.59;73.99
70133;BME280;57495;49.922;7.966;2023-03-16T10:34:55;100230.31;;;8.99;73.05
70133;BME280;57495;49.922;7.966;2023-03-16T10:36:57;100226.63;;;9.33;71.36
70133;BME280;57495;49.922;7.966;2023-03-16T10:39:04;100225.47;;;9.46;70.56
70133;BME280;57495;49.922;7.966;2023-03-16T10:41:19;100223.28;;;9.82;72.32
70133;BME280;57495;49.922;7.966;2023-03-16T10:43:21;100222.81;;;9.46;69.59
70133;BME280;57495;49.922;7.966;2023-03-16T10:45:28;100227.13;;;9.59;69.68
70133;BME280;57495;49.922;7.966;2023-03-16T10:47:31;100224.63;;;9.67;70.53
70133;BME280;57495;49.922;7.966;2023-03-16T10:49:35;100216.88;;;9.64;70.89